sensor_id;sensor_type;location;lat;lon;timestamp;pressure;altitude;pressure_sealevel;temperature;humidity
74678;BME280;67324;56.326;43.982;2023-04-16T00:00:50;102349.44;;;22.23;26.36
74678;BME280;67324;56.326;43.982;2023-04-16T00:03:16;102351.34;;;22.21;26.34
74678;BME280;67324;56.326;43.982;2023-04-16T00:05:42;102349.44;;;22.23;26.32
74678;BME280;67324;56.326;43.982;2023-04-16T00:08:07;102358.16;;;22.23;26.41
74678;BME280;67324;56.326;43.982;2023-04-16T00:10:33;102366.06;;;22.23;26.34
74678;BME280;67324;56.326;43.982;2023-04-16T00:13:00;102358.91;;;22.25;26.40
74678;BME280;67324;56.326;43.982;2023-04-16T00:15:26;102366.81;;;22.25;26.46
74678;BME280;67324;56.326;43.982;2023-04-16T00:17:52;102365.00;;;22.26;26.41
74678;BME280;67324;56.326;43.982;2023-04-16T00:20:18;102364.91;;;22.27;26.47
74678;BME280;67324;56.326;43.982;2023-04-16T00:23:03;102364.16;;;22.25;26.56
74678;BME280;67324;56.326;43.982;2023-04-16T00:25:29;102364.06;;;22.27;26.44
74678;BME280;67324;56.326;43.982;2023-04-16T00:27:55;102360.59;;;22.26;26.47
74678;BME280;67324;56.326;43.982;2023-04-16T00:30:21;102360.59;;;22.26;26.50
74678;BME280;67324;56.326;43.982;2023-04-16T00:32:47;102366.81;;;22.25;26.44
74678;BME280;67324;56.326;43.982;2023-04-16T00:35:13;102368.38;;;22.28;26.55
74678;BME280;67324;56.326;43.982;2023-04-16T00:37:39;102359.72;;;22.26;26.56
74678;BME280;67324;56.326;43.982;2023-04-16T00:40:05;102359.63;;;22.27;26.43
74678;BME280;67324;56.326;43.982;2023-04-16T00:42:32;102357.81;;;22.28;26.58
74678;BME280;67324;56.326;43.982;2023-04-16T00:44:58;102358.66;;;22.28;26.54
74678;BME280;67324;56.326;43.982;2023-04-16T00:47:24;102366.47;;;22.30;26.55
74678;BME280;67324;56.326;43.982;2023-04-16T00:49:50;102357.81;;;22.28;26.59
74678;BME280;67324;56.326;43.982;2023-04-16T00:52:16;102365.63;;;22.29;26.52
74678;BME280;67324;56.326;43.982;2023-04-16T00:54:42;102369.94;;;22.30;26.68
74678;BME280;67324;56.326;43.982;2023-04-16T00:57:09;102368.38;;;22.28;26.65
74678;BME280;67324;56.326;43.982;2023-04-16T00:59:35;102363.72;;;22.31;26.74
74678;BME280;67324;56.326;43.982;2023-04-16T01:02:01;102368.03;;;22.32;26.68
74678;BME280;67324;56.326;43.982;2023-04-16T01:04:27;102369.84;;;22.32;26.64
74678;BME280;67324;56.326;43.982;2023-04-16T01:06:55;102370.66;;;22.32;26.66
74678;BME280;67324;56.326;43.982;2023-04-16T01:09:21;102364.66;;;22.30;26.73
74678;BME280;67324;56.326;43.982;2023-04-16T01:11:47;102372.47;;;22.32;26.72
74678;BME280;67324;56.326;43.982;2023-04-16T01:14:12;102365.41;;;22.32;26.70
74678;BME280;67324;56.326;43.982;2023-04-16T01:16:38;102366.22;;;22.33;26.69
74678;BME280;67324;56.326;43.982;2023-04-16T01:19:05;102360.22;;;22.31;26.75
74678;BME280;67324;56.326;43.982;2023-04-16T01:21:31;102365.28;;;22.34;26.73
74678;BME280;67324;56.326;43.982;2023-04-16T01:24:01;102365.28;;;22.34;26.83
74678;BME280;67324;56.326;43.982;2023-04-16T01:26:27;102358.44;;;22.31;26.81
74678;BME280;67324;56.326;43.982;2023-04-16T01:28:54;102358.22;;;22.34;26.81
74678;BME280;67324;56.326;43.982;2023-04-16T01:31:20;102364.31;;;22.35;26.82
74678;BME280;67324;56.326;43.982;2023-04-16T01:34:03;102359.88;;;22.35;26.83
74678;BME280;67324;56.326;43.982;2023-04-16T01:36:29;102367.78;;;22.35;26.79
74678;BME280;67324;56.326;43.982;2023-04-16T01:38:55;102367.78;;;22.35;26.82
74678;BME280;67324;56.326;43.982;2023-04-16T01:41:22;102371.28;;;22.36;26.89
74678;BME280;67324;56.326;43.982;2023-04-16T01:43:48;102372.38;;;22.33;26.88
74678;BME280;67324;56.326;43.982;2023-04-16T01:46:17;102378.22;;;22.37;26.88
74678;BME280;67324;56.326;43.982;2023-04-16T01:48:45;102375.59;;;22.37;26.88
74678;BME280;67324;56.326;43.982;2023-04-16T01:51:12;102373.78;;;22.38;26.86
74678;BME280;67324;56.326;43.982;2023-04-16T01:53:38;102372.97;;;22.37;26.96
74678;BME280;67324;56.326;43.982;2023-04-16T01:56:05;102373.06;;;22.35;26.94
74678;BME280;67324;56.326;43.982;2023-04-16T01:58:49;102377.50;;;22.35;26.91
74678;BME280;67324;56.326;43.982;2023-04-16T02:01:16;102371.16;;;22.38;26.99
74678;BME280;67324;56.326;43.982;2023-04-16T02:03:44;102376.56;;;22.36;26.95
74678;BME280;67324;56.326;43.982;2023-04-16T02:06:10;102380.03;;;22.36;27.03
74678;BME280;67324;56.326;43.982;2023-04-16T02:08:35;102386.88;;;22.39;26.96
74678;BME280;67324;56.326;43.982;2023-04-16T02:11:01;102381.72;;;22.38;26.97
74678;BME280;67324;56.326;43.982;2023-04-16T02:13:28;102384.34;;;22.38;26.99
74678;BME280;67324;56.326;43.982;2023-04-16T02:15:53;102382.44;;;22.40;27.03
74678;BME280;67324;56.326;43.982;2023-04-16T02:18:54;102383.28;;;22.40;27.02
74678;BME280;67324;56.326;43.982;2023-04-16T02:21:22;102385.91;;;22.40;26.96
74678;BME280;67324;56.326;43.982;2023-04-16T02:23:48;102375.50;;;22.39;27.04
74678;BME280;67324;56.326;43.982;2023-04-16T02:26:18;102371.06;;;22.39;26.98
74678;BME280;67324;56.326;43.982;2023-04-16T02:28:44;102370.22;;;22.39;27.03
74678;BME280;67324;56.326;43.982;2023-04-16T02:31:11;102381.38;;;22.42;27.08
74678;BME280;67324;56.326;43.982;2023-04-16T02:33:42;102380.63;;;22.40;27.10
74678;BME280;67324;56.326;43.982;2023-04-16T02:36:08;102384.84;;;22.43;27.05
74678;BME280;67324;56.326;43.982;2023-04-16T02:38:35;102387.47;;;22.43;27.13
74678;BME280;67324;56.326;43.982;2023-04-16T02:41:02;102385.56;;;22.45;27.09
74678;BME280;67324;56.326;43.982;2023-04-16T02:43:28;102389.16;;;22.44;27.19
74678;BME280;67324;56.326;43.982;2023-04-16T02:45:55;102395.28;;;22.44;27.11
74678;BME280;67324;56.326;43.982;2023-04-16T02:48:20;102385.56;;;22.45;27.11
74678;BME280;67324;56.326;43.982;2023-04-16T02:50:46;102392.63;;;22.44;27.16
74678;BME280;67324;56.326;43.982;2023-04-16T02:53:12;102387.22;;;22.46;27.15
74678;BME280;67324;56.326;43.982;2023-04-16T02:55:38;102398.66;;;22.46;27.01
74678;BME280;67324;56.326;43.982;2023-04-16T02:58:04;102393.38;;;22.46;27.12
74678;BME280;67324;56.326;43.982;2023-04-16T03:00:30;102398.50;;;22.48;27.14
74678;BME280;67324;56.326;43.982;2023-04-16T03:02:56;102393.56;;;22.43;27.13
74678;BME280;67324;56.326;43.982;2023-04-16T03:05:22;102398.66;;;22.46;27.14
74678;BME280;67324;56.326;43.982;2023-04-16T03:07:49;102403.78;;;22.48;27.18
74678;BME280;67324;56.326;43.982;2023-04-16T03:10:21;102393.47;;;22.45;27.18
74678;BME280;67324;56.326;43.982;2023-04-16T03:12:47;102401.97;;;22.48;27.18
74678;BME280;67324;56.326;43.982;2023-04-16T03:15:13;102406.41;;;22.48;27.17
74678;BME280;67324;56.326;43.982;2023-04-16T03:17:39;102401.28;;;22.46;27.18
74678;BME280;67324;56.326;43.982;2023-04-16T03:20:06;102404.63;;;22.48;27.33
74678;BME280;67324;56.326;43.982;2023-04-16T03:22:32;102405.59;;;22.47;27.26
74678;BME280;67324;56.326;43.982;2023-04-16T03:24:58;102406.31;;;22.49;27.28
74678;BME280;67324;56.326;43.982;2023-04-16T03:27:24;102406.31;;;22.49;27.25
74678;BME280;67324;56.326;43.982;2023-04-16T03:29:50;102401.88;;;22.50;27.27
74678;BME280;67324;56.326;43.982;2023-04-16T03:32:16;102415.91;;;22.50;27.27
74678;BME280;67324;56.326;43.982;2023-04-16T03:34:43;102403.78;;;22.48;27.23
74678;BME280;67324;56.326;43.982;2023-04-16T03:37:10;102406.31;;;22.49;27.32
74678;BME280;67324;56.326;43.982;2023-04-16T03:39:37;102406.22;;;22.51;27.38
74678;BME280;67324;56.326;43.982;2023-04-16T03:42:03;102401.88;;;22.50;27.33
74678;BME280;67324;56.326;43.982;2023-04-16T03:44:29;102400.94;;;22.51;27.35
74678;BME280;67324;56.326;43.982;2023-04-16T03:46:55;102408.72;;;22.52;27.30
74678;BME280;67324;56.326;43.982;2023-04-16T03:49:21;102410.41;;;22.53;27.32
74678;BME280;67324;56.326;43.982;2023-04-16T03:51:47;102412.09;;;22.54;27.38
74678;BME280;67324;56.326;43.982;2023-04-16T03:54:13;102414.81;;;22.53;27.40
74678;BME280;67324;56.326;43.982;2023-04-16T03:56:41;102405.13;;;22.53;27.36
74678;BME280;67324;56.326;43.982;2023-04-16T03:59:08;102409.34;;;22.56;27.32
74678;BME280;67324;56.326;43.982;2023-04-16T04:01:36;102406.81;;;22.54;27.38
74678;BME280;67324;56.326;43.982;2023-04-16T04:04:03;102414.47;;;22.57;27.33
74678;BME280;67324;56.326;43.982;2023-04-16T04:06:29;102406.56;;;22.57;27.44
74678;BME280;67324;56.326;43.982;2023-04-16T04:08:57;102416.28;;;22.57;27.39
74678;BME280;67324;56.326;43.982;2023-04-16T04:11:23;102412.69;;;22.58;27.36
74678;BME280;67324;56.326;43.982;2023-04-16T04:13:49;102413.66;;;22.57;27.40
74678;BME280;67324;56.326;43.982;2023-04-16T04:16:15;102407.41;;;22.58;27.33
74678;BME280;67324;56.326;43.982;2023-04-16T04:18:42;102410.91;;;22.58;27.40
74678;BME280;67324;56.326;43.982;2023-04-16T04:21:08;102406.47;;;22.59;27.48
74678;BME280;67324;56.326;43.982;2023-04-16T04:23:35;102410.78;;;22.60;27.37
74678;BME280;67324;56.326;43.982;2023-04-16T04:26:01;102408.25;;;22.58;27.46
74678;BME280;67324;56.326;43.982;2023-04-16T04:28:29;102411.59;;;22.61;27.39
74678;BME280;67324;56.326;43.982;2023-04-16T04:30:56;102409.94;;;22.60;27.43
74678;BME280;67324;56.326;43.982;2023-04-16T04:33:23;102405.38;;;22.62;27.49
74678;BME280;67324;56.326;43.982;2023-04-16T04:35:50;102412.34;;;22.63;27.39
74678;BME280;67324;56.326;43.982;2023-04-16T04:38:16;102399.97;;;22.63;27.45
74678;BME280;67324;56.326;43.982;2023-04-16T04:40:45;102402.63;;;22.63;27.43
74678;BME280;67324;56.326;43.982;2023-04-16T04:43:13;102398.19;;;22.64;27.45
74678;BME280;67324;56.326;43.982;2023-04-16T04:45:39;102399.03;;;22.64;27.48
74678;BME280;67324;56.326;43.982;2023-04-16T04:48:05;102399.03;;;22.64;27.45
74678;BME280;67324;56.326;43.982;2023-04-16T04:50:31;102399.88;;;22.65;27.46
74678;BME280;67324;56.326;43.982;2023-04-16T04:52:57;102392.78;;;22.65;27.44
74678;BME280;67324;56.326;43.982;2023-04-16T04:55:23;102393.75;;;22.64;27.46
74678;BME280;67324;56.326;43.982;2023-04-16T04:57:50;102390.97;;;22.66;27.50
74678;BME280;67324;56.326;43.982;2023-04-16T05:00:15;102390.28;;;22.64;27.45
74678;BME280;67324;56.326;43.982;2023-04-16T05:03:04;102394.50;;;22.66;27.52
74678;BME280;67324;56.326;43.982;2023-04-16T05:05:30;102396.25;;;22.66;27.38
74678;BME280;67324;56.326;43.982;2023-04-16T05:07:56;102393.63;;;22.66;27.56
74678;BME280;67324;56.326;43.982;2023-04-16T05:10:41;102389.22;;;22.66;27.56
74678;BME280;67324;56.326;43.982;2023-04-16T05:13:06;102394.34;;;22.68;27.56
74678;BME280;67324;56.326;43.982;2023-04-16T05:15:32;102383.94;;;22.66;27.67
74678;BME280;67324;56.326;43.982;2023-04-16T05:17:58;102395.22;;;22.68;27.58
74678;BME280;67324;56.326;43.982;2023-04-16T05:20:25;102387.16;;;22.70;27.60
74678;BME280;67324;56.326;43.982;2023-04-16T05:23:10;102387.41;;;22.67;27.65
74678;BME280;67324;56.326;43.982;2023-04-16T05:25:36;102389.94;;;22.68;27.58
74678;BME280;67324;56.326;43.982;2023-04-16T05:28:02;102391.59;;;22.69;27.64
74678;BME280;67324;56.326;43.982;2023-04-16T05:30:27;102395.91;;;22.70;27.60
74678;BME280;67324;56.326;43.982;2023-04-16T05:32:53;102388.13;;;22.69;27.63
74678;BME280;67324;56.326;43.982;2023-04-16T05:35:19;102385.50;;;22.69;27.57
74678;BME280;67324;56.326;43.982;2023-04-16T05:37:45;102380.22;;;22.69;27.66
74678;BME280;67324;56.326;43.982;2023-04-16T05:40:12;102386.34;;;22.69;27.64
74678;BME280;67324;56.326;43.982;2023-04-16T05:42:57;102390.53;;;22.72;27.62
74678;BME280;67324;56.326;43.982;2023-04-16T05:45:23;102397.47;;;22.73;27.65
74678;BME280;67324;56.326;43.982;2023-04-16T05:47:48;102380.94;;;22.71;27.59
74678;BME280;67324;56.326;43.982;2023-04-16T05:50:33;102384.28;;;22.73;27.57
74678;BME280;67324;56.326;43.982;2023-04-16T05:53:01;102379.97;;;22.72;27.73
74678;BME280;67324;56.326;43.982;2023-04-16T05:55:27;102394.72;;;22.74;27.64
74678;BME280;67324;56.326;43.982;2023-04-16T05:57:53;102383.44;;;22.72;27.67
74678;BME280;67324;56.326;43.982;2023-04-16T06:00:19;102386.81;;;22.74;27.63
74678;BME280;67324;56.326;43.982;2023-04-16T06:02:45;102383.09;;;22.77;27.55
74678;BME280;67324;56.326;43.982;2023-04-16T06:05:11;102389.22;;;22.77;27.76
74678;BME280;67324;56.326;43.982;2023-04-16T06:07:37;102384.91;;;22.76;27.71
74678;BME280;67324;56.326;43.982;2023-04-16T06:10:02;102384.66;;;22.79;27.63
74678;BME280;67324;56.326;43.982;2023-04-16T06:12:29;102383.00;;;22.78;27.69
74678;BME280;67324;56.326;43.982;2023-04-16T06:14:55;102386.31;;;22.80;27.71
74678;BME280;67324;56.326;43.982;2023-04-16T06:17:21;102390.56;;;22.83;27.74
74678;BME280;67324;56.326;43.982;2023-04-16T06:19:47;102391.41;;;22.84;27.67
74678;BME280;67324;56.326;43.982;2023-04-16T06:22:13;102390.44;;;22.85;27.71
74678;BME280;67324;56.326;43.982;2023-04-16T06:24:39;102388.75;;;22.84;27.73
74678;BME280;67324;56.326;43.982;2023-04-16T06:27:05;102392.22;;;22.84;27.68
74678;BME280;67324;56.326;43.982;2023-04-16T06:29:31;102388.63;;;22.85;27.75
74678;BME280;67324;56.326;43.982;2023-04-16T06:32:16;102386.13;;;22.84;27.70
74678;BME280;67324;56.326;43.982;2023-04-16T06:34:42;102387.53;;;22.88;27.75
74678;BME280;67324;56.326;43.982;2023-04-16T06:37:08;102396.31;;;22.88;27.77
74678;BME280;67324;56.326;43.982;2023-04-16T06:39:34;102387.78;;;22.85;27.74
74678;BME280;67324;56.326;43.982;2023-04-16T06:42:00;102380.59;;;22.87;27.76
74678;BME280;67324;56.326;43.982;2023-04-16T06:44:27;102391.75;;;22.90;27.72
74678;BME280;67324;56.326;43.982;2023-04-16T06:46:53;102391.75;;;22.90;27.74
74678;BME280;67324;56.326;43.982;2023-04-16T06:49:19;102383.81;;;22.90;27.73
74678;BME280;67324;56.326;43.982;2023-04-16T06:51:44;102381.19;;;22.90;27.79
74678;BME280;67324;56.326;43.982;2023-04-16T06:54:10;102382.03;;;22.91;27.76
74678;BME280;67324;56.326;43.982;2023-04-16T06:56:36;102380.34;;;22.90;27.74
74678;BME280;67324;56.326;43.982;2023-04-16T06:59:03;102372.31;;;22.91;27.79
74678;BME280;67324;56.326;43.982;2023-04-16T07:01:29;102373.28;;;22.90;27.72
74678;BME280;67324;56.326;43.982;2023-04-16T07:03:58;102372.31;;;22.91;27.75
74678;BME280;67324;56.326;43.982;2023-04-16T07:06:24;102369.53;;;22.93;27.75
74678;BME280;67324;56.326;43.982;2023-04-16T07:08:51;102372.91;;;22.95;27.77
74678;BME280;67324;56.326;43.982;2023-04-16T07:11:17;102361.78;;;22.91;27.85
74678;BME280;67324;56.326;43.982;2023-04-16T07:13:44;102370.28;;;22.95;27.87
74678;BME280;67324;56.326;43.982;2023-04-16T07:16:10;102364.28;;;22.93;27.81
74678;BME280;67324;56.326;43.982;2023-04-16T07:18:35;102359.59;;;22.96;27.82
74678;BME280;67324;56.326;43.982;2023-04-16T07:21:02;102363.34;;;22.94;27.74
74678;BME280;67324;56.326;43.982;2023-04-16T07:23:29;102360.44;;;22.97;27.82
74678;BME280;67324;56.326;43.982;2023-04-16T07:25:55;102356.03;;;22.97;27.84
74678;BME280;67324;56.326;43.982;2023-04-16T07:28:21;102356.03;;;22.97;27.87
74678;BME280;67324;56.326;43.982;2023-04-16T07:30:49;102358.56;;;22.99;27.87
74678;BME280;67324;56.326;43.982;2023-04-16T07:33:15;102354.22;;;22.98;27.90
74678;BME280;67324;56.326;43.982;2023-04-16T07:35:41;102347.03;;;23.00;27.88
74678;BME280;67324;56.326;43.982;2023-04-16T07:38:07;102342.72;;;22.99;27.88
74678;BME280;67324;56.326;43.982;2023-04-16T07:40:32;102343.56;;;22.99;27.84
74678;BME280;67324;56.326;43.982;2023-04-16T07:42:58;102353.28;;;22.99;27.87
74678;BME280;67324;56.326;43.982;2023-04-16T07:45:24;102354.94;;;23.00;27.87
74678;BME280;67324;56.326;43.982;2023-04-16T07:47:50;102346.19;;;22.99;27.84
74678;BME280;67324;56.326;43.982;2023-04-16T07:50:16;102339.25;;;22.98;27.92
74678;BME280;67324;56.326;43.982;2023-04-16T07:52:45;102343.56;;;22.99;27.85
74678;BME280;67324;56.326;43.982;2023-04-16T07:55:11;102346.09;;;23.01;27.89
74678;BME280;67324;56.326;43.982;2023-04-16T07:57:37;102337.44;;;22.99;27.93
74678;BME280;67324;56.326;43.982;2023-04-16T08:00:03;102344.38;;;23.00;27.83
74678;BME280;67324;56.326;43.982;2023-04-16T08:02:40;102338.91;;;23.03;27.91
74678;BME280;67324;56.326;43.982;2023-04-16T08:05:06;102335.53;;;23.01;27.93
74678;BME280;67324;56.326;43.982;2023-04-16T08:07:33;102338.91;;;23.03;27.92
74678;BME280;67324;56.326;43.982;2023-04-16T08:09:59;102335.38;;;23.03;27.90
74678;BME280;67324;56.326;43.982;2023-04-16T08:12:25;102338.91;;;23.03;27.95
74678;BME280;67324;56.326;43.982;2023-04-16T08:14:51;102324.97;;;23.01;27.92
74678;BME280;67324;56.326;43.982;2023-04-16T08:17:17;102335.28;;;23.04;27.94
74678;BME280;67324;56.326;43.982;2023-04-16T08:19:43;102332.66;;;23.04;27.87
74678;BME280;67324;56.326;43.982;2023-04-16T08:22:29;102326.38;;;23.05;27.90
74678;BME280;67324;56.326;43.982;2023-04-16T08:24:55;102326.53;;;23.04;27.90
74678;BME280;67324;56.326;43.982;2023-04-16T08:27:21;102324.72;;;23.04;27.94
74678;BME280;67324;56.326;43.982;2023-04-16T08:29:47;102318.72;;;23.02;27.98
74678;BME280;67324;56.326;43.982;2023-04-16T08:32:13;102325.44;;;23.06;27.91
74678;BME280;67324;56.326;43.982;2023-04-16T08:34:58;102323.63;;;23.07;28.00
74678;BME280;67324;56.326;43.982;2023-04-16T08:37:24;102312.25;;;23.06;28.05
74678;BME280;67324;56.326;43.982;2023-04-16T08:39:50;102300.97;;;23.04;27.99
74678;BME280;67324;56.326;43.982;2023-04-16T08:45:03;102305.16;;;23.07;27.94
74678;BME280;67324;56.326;43.982;2023-04-16T08:47:33;102299.88;;;23.07;27.98
74678;BME280;67324;56.326;43.982;2023-04-16T08:50:00;102298.91;;;23.08;28.00
74678;BME280;67324;56.326;43.982;2023-04-16T08:52:28;102306.97;;;23.06;28.02
74678;BME280;67324;56.326;43.982;2023-04-16T08:55:03;102294.50;;;23.08;28.04
74678;BME280;67324;56.326;43.982;2023-04-16T08:57:36;102294.59;;;23.07;27.96
74678;BME280;67324;56.326;43.982;2023-04-16T09:00:03;102297.13;;;23.08;27.92
74678;BME280;67324;56.326;43.982;2023-04-16T09:02:31;102291.00;;;23.08;28.02
74678;BME280;67324;56.326;43.982;2023-04-16T09:04:58;102294.50;;;23.08;27.97
74678;BME280;67324;56.326;43.982;2023-04-16T09:07:26;102292.53;;;23.10;28.01
74678;BME280;67324;56.326;43.982;2023-04-16T09:09:53;102290.63;;;23.12;28.01
74678;BME280;67324;56.326;43.982;2023-04-16T09:12:22;102288.00;;;23.12;28.08
74678;BME280;67324;56.326;43.982;2023-04-16T09:14:49;102284.63;;;23.10;28.01
74678;BME280;67324;56.326;43.982;2023-04-16T09:17:15;102277.56;;;23.11;28.08
74678;BME280;67324;56.326;43.982;2023-04-16T09:19:43;102281.75;;;23.13;28.06
74678;BME280;67324;56.326;43.982;2023-04-16T09:22:09;102273.84;;;23.13;28.08
74678;BME280;67324;56.326;43.982;2023-04-16T09:24:35;102271.31;;;23.12;28.04
74678;BME280;67324;56.326;43.982;2023-04-16T09:27:03;102263.50;;;23.10;28.08
74678;BME280;67324;56.326;43.982;2023-04-16T09:29:37;102276.34;;;23.15;28.08
74678;BME280;67324;56.326;43.982;2023-04-16T09:32:05;102271.91;;;23.15;28.11
74678;BME280;67324;56.326;43.982;2023-04-16T09:34:32;102261.34;;;23.15;28.07
74678;BME280;67324;56.326;43.982;2023-04-16T09:37:25;102269.25;;;23.15;28.06
74678;BME280;67324;56.326;43.982;2023-04-16T09:39:57;102263.88;;;23.17;28.06
74678;BME280;67324;56.326;43.982;2023-04-16T09:42:29;102257.75;;;23.16;28.12
74678;BME280;67324;56.326;43.982;2023-04-16T09:44:57;102259.41;;;23.17;28.05
74678;BME280;67324;56.326;43.982;2023-04-16T09:47:24;102262.91;;;23.18;28.08
74678;BME280;67324;56.326;43.982;2023-04-16T09:49:51;102253.31;;;23.17;28.09
74678;BME280;67324;56.326;43.982;2023-04-16T09:52:18;102248.03;;;23.17;28.06
74678;BME280;67324;56.326;43.982;2023-04-16T09:54:46;102240.94;;;23.17;28.14
74678;BME280;67324;56.326;43.982;2023-04-16T09:57:13;102243.56;;;23.17;28.11
74678;BME280;67324;56.326;43.982;2023-04-16T09:59:39;102251.28;;;23.20;28.19
74678;BME280;67324;56.326;43.982;2023-04-16T10:02:07;102246.00;;;23.20;28.05
74678;BME280;67324;56.326;43.982;2023-04-16T10:07:11;102238.19;;;23.19;28.03
74678;BME280;67324;56.326;43.982;2023-04-16T10:09:38;102235.44;;;23.20;28.03
74678;BME280;67324;56.326;43.982;2023-04-16T10:12:05;102233.75;;;23.19;28.01
74678;BME280;67324;56.326;43.982;2023-04-16T10:14:31;102244.19;;;23.21;28.11
74678;BME280;67324;56.326;43.982;2023-04-16T10:16:59;102231.81;;;23.21;28.13
74678;BME280;67324;56.326;43.982;2023-04-16T10:19:28;102242.13;;;23.25;28.14
74678;BME280;67324;56.326;43.982;2023-04-16T10:21:57;102243.09;;;23.24;28.14
74678;BME280;67324;56.326;43.982;2023-04-16T10:24:24;102241.19;;;23.26;28.21
74678;BME280;67324;56.326;43.982;2023-04-16T10:27:09;102229.06;;;23.23;28.16
74678;BME280;67324;56.326;43.982;2023-04-16T10:29:35;102236.00;;;23.24;28.13
74678;BME280;67324;56.326;43.982;2023-04-16T10:32:01;102227.09;;;23.25;28.13
74678;BME280;67324;56.326;43.982;2023-04-16T10:34:28;102230.63;;;23.26;28.27
74678;BME280;67324;56.326;43.982;2023-04-16T10:36:55;102224.34;;;23.27;28.26
74678;BME280;67324;56.326;43.982;2023-04-16T10:39:23;102226.03;;;23.28;28.17
74678;BME280;67324;56.326;43.982;2023-04-16T10:42:06;102230.34;;;23.29;28.12
74678;BME280;67324;56.326;43.982;2023-04-16T10:44:50;102224.34;;;23.27;28.19
74678;BME280;67324;56.326;43.982;2023-04-16T10:47:16;102221.59;;;23.28;28.12
74678;BME280;67324;56.326;43.982;2023-04-16T10:49:42;102220.63;;;23.29;28.15
74678;BME280;67324;56.326;43.982;2023-04-16T10:52:13;102225.06;;;23.29;28.17
74678;BME280;67324;56.326;43.982;2023-04-16T10:54:42;102221.47;;;23.30;28.15
74678;BME280;67324;56.326;43.982;2023-04-16T10:57:09;102225.91;;;23.29;28.15
74678;BME280;67324;56.326;43.982;2023-04-16T10:59:42;102220.50;;;23.31;28.15
74678;BME280;67324;56.326;43.982;2023-04-16T11:02:14;102216.91;;;23.32;28.12
74678;BME280;67324;56.326;43.982;2023-04-16T11:05:00;102214.50;;;23.29;28.21
74678;BME280;67324;56.326;43.982;2023-04-16T11:07:33;102223.84;;;23.33;28.21
74678;BME280;67324;56.326;43.982;2023-04-16T11:10:03;102213.53;;;23.30;28.18
74678;BME280;67324;56.326;43.982;2023-04-16T11:20:14;102208.84;;;23.33;28.24
74678;BME280;67324;56.326;43.982;2023-04-16T11:22:42;102208.84;;;23.33;28.15
74678;BME280;67324;56.326;43.982;2023-04-16T11:25:08;102204.41;;;23.34;28.15
74678;BME280;67324;56.326;43.982;2023-04-16T11:27:34;102194.69;;;23.34;28.23
74678;BME280;67324;56.326;43.982;2023-04-16T11:30:04;102193.59;;;23.37;28.20
74678;BME280;67324;56.326;43.982;2023-04-16T11:32:33;102198.03;;;23.36;28.23
74678;BME280;67324;56.326;43.982;2023-04-16T11:37:38;102189.13;;;23.37;28.33
74678;BME280;67324;56.326;43.982;2023-04-16T11:40:07;102186.50;;;23.37;28.27
74678;BME280;67324;56.326;43.982;2023-04-16T11:42:35;102186.63;;;23.36;28.19
74678;BME280;67324;56.326;43.982;2023-04-16T11:45:02;102183.75;;;23.39;28.27
74678;BME280;67324;56.326;43.982;2023-04-16T11:47:30;102178.56;;;23.37;28.34
74678;BME280;67324;56.326;43.982;2023-04-16T11:50:20;102185.56;;;23.38;28.22
74678;BME280;67324;56.326;43.982;2023-04-16T11:52:49;102188.19;;;23.38;28.34
74678;BME280;67324;56.326;43.982;2023-04-16T11:55:16;102175.00;;;23.38;28.22
74678;BME280;67324;56.326;43.982;2023-04-16T11:57:42;102181.66;;;23.42;28.25
74678;BME280;67324;56.326;43.982;2023-04-16T12:00:08;102180.84;;;23.42;28.11
74678;BME280;67324;56.326;43.982;2023-04-16T12:02:49;102179.03;;;23.42;28.18
74678;BME280;67324;56.326;43.982;2023-04-16T12:07:58;102165.00;;;23.42;28.28
74678;BME280;67324;56.326;43.982;2023-04-16T12:15:17;102174.47;;;23.44;28.30
74678;BME280;67324;56.326;43.982;2023-04-16T12:17:43;102169.19;;;23.44;28.30
74678;BME280;67324;56.326;43.982;2023-04-16T12:20:11;102155.25;;;23.42;28.24
74678;BME280;67324;56.326;43.982;2023-04-16T12:22:39;102155.03;;;23.46;28.23
74678;BME280;67324;56.326;43.982;2023-04-16T12:25:10;102147.94;;;23.46;28.31
74678;BME280;67324;56.326;43.982;2023-04-16T12:27:44;102148.75;;;23.47;28.18
74678;BME280;67324;56.326;43.982;2023-04-16T12:30:48;102143.59;;;23.45;28.30
74678;BME280;67324;56.326;43.982;2023-04-16T12:33:16;102142.50;;;23.48;28.20
74678;BME280;67324;56.326;43.982;2023-04-16T12:35:42;102141.69;;;23.47;28.30
74678;BME280;67324;56.326;43.982;2023-04-16T12:38:10;102139.75;;;23.49;28.28
74678;BME280;67324;56.326;43.982;2023-04-16T12:40:37;102138.31;;;23.45;28.38
74678;BME280;67324;56.326;43.982;2023-04-16T12:43:03;102132.91;;;23.47;28.37
74678;BME280;67324;56.326;43.982;2023-04-16T12:45:29;102127.53;;;23.48;28.26
74678;BME280;67324;56.326;43.982;2023-04-16T12:47:56;102121.38;;;23.48;28.31
74678;BME280;67324;56.326;43.982;2023-04-16T12:50:22;102129.91;;;23.51;28.39
74678;BME280;67324;56.326;43.982;2023-04-16T12:52:48;102119.59;;;23.48;28.28
74678;BME280;67324;56.326;43.982;2023-04-16T12:55:14;102126.44;;;23.51;28.36
74678;BME280;67324;56.326;43.982;2023-04-16T12:57:40;102122.81;;;23.52;28.40
74678;BME280;67324;56.326;43.982;2023-04-16T13:00:07;102120.16;;;23.52;28.31
74678;BME280;67324;56.326;43.982;2023-04-16T13:02:37;102117.53;;;23.52;28.22
74678;BME280;67324;56.326;43.982;2023-04-16T13:05:03;102112.34;;;23.50;28.37
74678;BME280;67324;56.326;43.982;2023-04-16T13:07:30;102109.47;;;23.53;28.29